Time;durP1;ratioP1;P1;durP2;ratioP2;P2;SDS_P1;SDS_P2;PMS_P1;PMS_P2;Temp;Humidity;BMP_temperature;BMP_pressure;BME280_temperature;BME280_humidity;BME280_pressure;Samples;Min_cycle;Max_cycle;Signal;HPM_P1;HPM_P2
2023/06/03 00:00:18;;;;;;;13.35;7.35;;;;;;;;;;6221337;28;20042;-56
2023/06/03 00:03:39;;;;;;;17.60;7.78;;;;;;;;;;6216459;28;20477;-59
2023/06/03 00:06:40;;;;;;;16.27;8.52;;;;;;;;;;6220143;28;20046;-48
2023/06/03 00:09:40;;;;;;;14.70;7.80;;;;;;;;;;6218308;28;20102;-57
2023/06/03 00:12:41;;;;;;;14.90;8.60;;;;;;;;;;6218774;28;20059;-46
2023/06/03 00:15:42;;;;;;;16.30;9.68;;;;;;;;;;6222124;28;20042;-47
2023/06/03 00:18:42;;;;;;;17.38;10.00;;;;;;;;;;6221547;28;20033;-47
2023/06/03 00:21:50;;;;;;;18.20;10.23;;;;;;;;;;6235043;28;20542;-47
2023/06/03 00:24:50;;;;;;;17.33;9.75;;;;;;;;;;6226663;28;20056;-50
2023/06/03 00:27:51;;;;;;;16.85;10.05;;;;;;;;;;6224151;28;20078;-50
2023/06/03 00:30:51;;;;;;;18.17;10.05;;;;;;;;;;6223004;28;20041;-47
2023/06/03 00:33:52;;;;;;;19.42;10.40;;;;;;;;;;6236780;28;20045;-47
2023/06/03 00:36:53;;;;;;;21.23;11.32;;;;;;;;;;6231607;28;20050;-56
2023/06/03 00:39:53;;;;;;;20.10;10.00;;;;;;;;;;6224225;28;20077;-47
2023/06/03 00:42:54;;;;;;;15.30;9.15;;;;;;;;;;6223898;28;20057;-47
2023/06/03 00:45:54;;;;;;;19.85;8.88;;;;;;;;;;6221263;28;20112;-47
2023/06/03 00:48:55;;;;;;;15.68;9.30;;;;;;;;;;6224949;28;20048;-46
2023/06/03 00:51:56;;;;;;;16.10;9.52;;;;;;;;;;6222948;28;20453;-49
2023/06/03 00:54:57;;;;;;;17.77;8.82;;;;;;;;;;6236230;28;20524;-49
2023/06/03 00:57:57;;;;;;;17.00;8.90;;;;;;;;;;6229982;28;20155;-46
2023/06/03 01:00:58;;;;;;;17.02;9.00;;;;;;;;;;6224213;28;20467;-46
2023/06/03 01:03:59;;;;;;;20.80;9.27;;;;;;;;;;6219865;28;20042;-49
2023/06/03 01:07:26;;;;;;;20.48;9.15;;;;;;;;;;6219513;28;20690;-47
2023/06/03 01:10:31;;;;;;;20.65;9.32;;;;;;;;;;6224387;28;20135;-46
2023/06/03 01:13:37;;;;;;;17.63;9.65;;;;;;;;;;6223743;28;20095;-50
2023/06/03 01:16:44;;;;;;;17.77;9.02;;;;;;;;;;6225494;28;20041;-46
2023/06/03 01:19:49;;;;;;;17.40;9.43;;;;;;;;;;6222542;28;20037;-48
2023/06/03 01:22:51;;;;;;;18.08;9.70;;;;;;;;;;6222177;28;20112;-45
2023/06/03 01:25:58;;;;;;;;;;;;;;;;;;6223473;28;22150;-48
2023/06/03 01:28:59;;;;;;;19.13;10.23;;;;;;;;;;6225953;28;20308;-49
2023/06/03 01:32:01;;;;;;;17.35;9.35;;;;;;;;;;6225904;28;20033;-49
2023/06/03 01:35:03;;;;;;;20.13;8.77;;;;;;;;;;6224434;28;20140;-47
2023/06/03 01:38:04;;;;;;;17.85;8.40;;;;;;;;;;6222560;28;20057;-49
2023/06/03 01:41:05;;;;;;;17.80;9.05;;;;;;;;;;6220511;28;20145;-47
2023/06/03 01:44:06;;;;;;;16.02;8.23;;;;;;;;;;6220959;28;20042;-47
2023/06/03 01:47:08;;;;;;;17.08;8.75;;;;;;;;;;6218754;28;20100;-53
2023/06/03 01:50:09;;;;;;;21.58;8.13;;;;;;;;;;6222399;28;20053;-48
2023/06/03 01:53:10;;;;;;;18.73;8.23;;;;;;;;;;6221499;28;20500;-47
2023/06/03 01:56:10;;;;;;;19.38;7.85;;;;;;;;;;6220048;28;20045;-47
2023/06/03 01:59:11;;;;;;;21.38;8.10;;;;;;;;;;6220741;28;20054;-48
2023/06/03 02:02:12;;;;;;;18.98;7.68;;;;;;;;;;6221607;28;20556;-50
2023/06/03 02:05:13;;;;;;;21.50;8.15;;;;;;;;;;6215198;28;20064;-49
2023/06/03 02:08:13;;;;;;;19.27;8.30;;;;;;;;;;6213032;28;20049;-48
2023/06/03 02:11:14;;;;;;;20.35;7.68;;;;;;;;;;6218299;28;20045;-47
2023/06/03 02:14:14;;;;;;;21.10;8.32;;;;;;;;;;6220779;28;20492;-48
2023/06/03 02:17:15;;;;;;;18.25;7.60;;;;;;;;;;6217378;28;20041;-47
2023/06/03 02:20:16;;;;;;;20.52;7.78;;;;;;;;;;6221870;28;20112;-50
2023/06/03 02:23:16;;;;;;;21.13;7.63;;;;;;;;;;6221019;28;20614;-48
2023/06/03 02:26:17;;;;;;;16.52;7.75;;;;;;;;;;6219323;28;20050;-51
2023/06/03 02:29:19;;;;;;;18.55;7.80;;;;;;;;;;6221770;28;20050;-48
2023/06/03 02:32:20;;;;;;;20.48;8.25;;;;;;;;;;6221824;28;20045;-48
2023/06/03 02:35:21;;;;;;;15.77;7.40;;;;;;;;;;6220118;28;20673;-48
2023/06/03 02:38:22;;;;;;;21.63;7.75;;;;;;;;;;6220206;28;20791;-47
2023/06/03 02:41:22;;;;;;;22.00;8.48;;;;;;;;;;6220232;28;20050;-47
2023/06/03 02:44:24;;;;;;;21.38;7.93;;;;;;;;;;6220456;28;20053;-47
2023/06/03 02:47:24;;;;;;;20.33;8.40;;;;;;;;;;6220191;28;20134;-48
2023/06/03 02:50:25;;;;;;;25.75;7.85;;;;;;;;;;6221651;28;20565;-49
2023/06/03 02:53:26;;;;;;;22.27;7.45;;;;;;;;;;6220826;28;20485;-50
2023/06/03 02:56:26;;;;;;;20.05;7.82;;;;;;;;;;6219624;28;20044;-48
2023/06/03 02:59:27;;;;;;;18.05;7.07;;;;;;;;;;6218297;28;20049;-50
2023/06/03 03:02:28;;;;;;;16.85;6.70;;;;;;;;;;6222029;28;20052;-46
2023/06/03 03:05:30;;;;;;;17.33;6.80;;;;;;;;;;6225114;28;20068;-47
2023/06/03 03:08:31;;;;;;;17.05;7.20;;;;;;;;;;6238112;28;20077;-47
2023/06/03 03:11:31;;;;;;;15.43;6.28;;;;;;;;;;6220848;28;21235;-47
2023/06/03 03:14:32;;;;;;;13.07;5.97;;;;;;;;;;6227274;28;20052;-47
2023/06/03 03:17:33;;;;;;;14.27;5.95;;;;;;;;;;6218029;28;20548;-47
2023/06/03 03:20:33;;;;;;;10.63;5.72;;;;;;;;;;6220210;28;20046;-48
2023/06/03 03:23:34;;;;;;;15.57;6.07;;;;;;;;;;6220247;28;20045;-47
2023/06/03 03:26:35;;;;;;;12.45;5.47;;;;;;;;;;6219235;28;20119;-50
2023/06/03 03:29:35;;;;;;;11.73;5.28;;;;;;;;;;6228915;28;20520;-51
2023/06/03 03:32:36;;;;;;;12.98;5.00;;;;;;;;;;6222268;28;20068;-46
2023/06/03 03:35:40;;;;;;;12.13;5.07;;;;;;;;;;6218870;28;20134;-50
2023/06/03 03:38:40;;;;;;;10.57;5.30;;;;;;;;;;6218012;28;20108;-48
2023/06/03 03:41:44;;;;;;;12.45;5.40;;;;;;;;;;6220845;28;20137;-47
2023/06/03 03:44:45;;;;;;;16.38;6.00;;;;;;;;;;6219117;28;20046;-48
2023/06/03 03:47:59;;;;;;;9.68;5.32;;;;;;;;;;6217643;28;20087;-47
2023/06/03 03:51:00;;;;;;;13.65;5.68;;;;;;;;;;6222059;28;20128;-47
2023/06/03 03:54:01;;;;;;;11.77;5.95;;;;;;;;;;6226390;28;20064;-46
2023/06/03 03:57:08;;;;;;;12.48;5.70;;;;;;;;;;6217069;28;20053;-48
2023/06/03 04:00:09;;;;;;;11.63;5.78;;;;;;;;;;6224450;28;20057;-51
2023/06/03 04:03:11;;;;;;;16.33;5.80;;;;;;;;;;6223219;28;20432;-48
2023/06/03 04:06:17;;;;;;;12.98;5.82;;;;;;;;;;6224356;28;20509;-47
2023/06/03 04:09:17;;;;;;;12.77;5.95;;;;;;;;;;6225265;28;20037;-46
2023/06/03 04:12:27;;;;;;;11.75;6.00;;;;;;;;;;6225089;28;20116;-47
2023/06/03 04:15:33;;;;;;;11.85;5.43;;;;;;;;;;6220847;28;20037;-47
2023/06/03 04:18:40;;;;;;;19.80;6.90;;;;;;;;;;6221170;28;20045;-50
2023/06/03 04:21:41;;;;;;;12.55;5.85;;;;;;;;;;6222755;28;20046;-47
2023/06/03 04:24:42;;;;;;;11.15;5.90;;;;;;;;;;6218909;28;20558;-49
2023/06/03 04:27:43;;;;;;;13.07;5.78;;;;;;;;;;6220496;28;20042;-49
2023/06/03 04:30:43;;;;;;;10.88;5.70;;;;;;;;;;6221348;28;20715;-55
2023/06/03 04:33:44;;;;;;;10.65;5.60;;;;;;;;;;6223393;28;20053;-49
2023/06/03 04:36:45;;;;;;;12.07;5.95;;;;;;;;;;6223056;28;20053;-50
2023/06/03 04:39:45;;;;;;;11.45;5.43;;;;;;;;;;6219146;28;20123;-48
2023/06/03 04:42:47;;;;;;;13.80;6.22;;;;;;;;;;6222128;28;20472;-47
2023/06/03 04:45:53;;;;;;;12.73;5.60;;;;;;;;;;6221971;28;20527;-47
2023/06/03 04:48:55;;;;;;;13.05;5.63;;;;;;;;;;6219426;28;20052;-47
2023/06/03 04:51:55;;;;;;;9.63;5.47;;;;;;;;;;6220777;28;22580;-47
2023/06/03 04:54:56;;;;;;;10.35;5.10;;;;;;;;;;6220785;28;20056;-54
2023/06/03 04:58:00;;;;;;;9.77;5.68;;;;;;;;;;6220770;28;20053;-47
2023/06/03 05:01:04;;;;;;;11.43;5.68;;;;;;;;;;6222018;28;20053;-49
2023/06/03 05:04:08;;;;;;;15.07;5.35;;;;;;;;;;6227921;28;20041;-47
2023/06/03 05:07:10;;;;;;;12.52;5.97;;;;;;;;;;6223987;28;20046;-49
2023/06/03 05:10:10;;;;;;;12.98;6.07;;;;;;;;;;6222533;28;20061;-47
2023/06/03 05:13:12;;;;;;;13.88;6.78;;;;;;;;;;6221660;28;20472;-47
2023/06/03 05:16:12;;;;;;;16.10;6.43;;;;;;;;;;6221136;28;20048;-47
2023/06/03 05:19:13;;;;;;;17.65;6.72;;;;;;;;;;6219367;28;20539;-48
2023/06/03 05:22:13;;;;;;;12.25;5.70;;;;;;;;;;6233778;28;20049;-52
2023/06/03 05:25:14;;;;;;;14.88;6.35;;;;;;;;;;6243259;28;20556;-50
2023/06/03 05:28:14;;;;;;;11.25;5.43;;;;;;;;;;6242211;28;20049;-49
2023/06/03 05:31:15;;;;;;;16.48;7.47;;;;;;;;;;6242141;28;20042;-48
2023/06/03 05:34:15;;;;;;;21.25;6.18;;;;;;;;;;6242550;28;20051;-48
2023/06/03 05:37:17;;;;;;;12.60;5.97;;;;;;;;;;6242857;28;20045;-48
2023/06/03 05:40:17;;;;;;;11.88;6.40;;;;;;;;;;6238961;28;20045;-47
2023/06/03 05:43:19;;;;;;;11.38;6.10;;;;;;;;;;6242290;28;20571;-57
2023/06/03 05:46:20;;;;;;;13.63;6.10;;;;;;;;;;6242716;28;20033;-54
2023/06/03 05:49:20;;;;;;;13.23;6.85;;;;;;;;;;6241115;28;20060;-57
2023/06/03 05:52:21;;;;;;;14.13;6.72;;;;;;;;;;6242106;28;20045;-58
2023/06/03 05:55:22;;;;;;;14.13;6.75;;;;;;;;;;6242341;28;20045;-56
2023/06/03 05:58:22;;;;;;;16.27;6.45;;;;;;;;;;6241543;28;20049;-58
2023/06/03 06:01:23;;;;;;;13.88;6.40;;;;;;;;;;6241030;28;20560;-58
2023/06/03 06:04:24;;;;;;;12.20;6.28;;;;;;;;;;6239095;28;20613;-58
2023/06/03 06:07:25;;;;;;;10.43;6.15;;;;;;;;;;6236462;28;20041;-60
2023/06/03 06:10:26;;;;;;;12.27;6.00;;;;;;;;;;6240302;28;20057;-55
2023/06/03 06:13:27;;;;;;;12.05;6.18;;;;;;;;;;6241299;28;20080;-60
2023/06/03 06:16:27;;;;;;;10.10;5.38;;;;;;;;;;6241939;28;20041;-51
2023/06/03 06:19:28;;;;;;;10.25;5.30;;;;;;;;;;6238031;28;20056;-61
2023/06/03 06:22:29;;;;;;;12.85;5.45;;;;;;;;;;6241254;28;20045;-60
2023/06/03 06:25:29;;;;;;;10.18;4.70;;;;;;;;;;6241704;28;20098;-60
2023/06/03 06:28:31;;;;;;;12.80;5.60;;;;;;;;;;6240173;28;20056;-58
2023/06/03 06:31:32;;;;;;;11.50;5.95;;;;;;;;;;6239178;28;20416;-57
2023/06/03 06:34:34;;;;;;;14.85;6.03;;;;;;;;;;6229459;28;20061;-60
2023/06/03 06:37:35;;;;;;;12.73;6.00;;;;;;;;;;6235300;28;20037;-60
2023/06/03 06:40:37;;;;;;;12.55;6.70;;;;;;;;;;6230885;28;20080;-57
2023/06/03 06:43:39;;;;;;;13.52;6.10;;;;;;;;;;6230758;28;20144;-58
2023/06/03 06:46:40;;;;;;;13.85;6.63;;;;;;;;;;6221851;28;20049;-57
2023/06/03 06:49:41;;;;;;;13.90;6.20;;;;;;;;;;6224646;28;20048;-61
2023/06/03 06:52:41;;;;;;;11.73;5.85;;;;;;;;;;6234117;28;20405;-56
2023/06/03 06:55:55;;;;;;;14.20;6.22;;;;;;;;;;6230476;28;20120;-61
2023/06/03 06:58:55;;;;;;;13.15;6.25;;;;;;;;;;6240221;28;20056;-62
2023/06/03 07:01:56;;;;;;;12.73;6.28;;;;;;;;;;6239112;28;20136;-59
2023/06/03 07:04:56;;;;;;;16.55;6.15;;;;;;;;;;6240110;28;20041;-58
2023/06/03 07:07:57;;;;;;;9.02;5.65;;;;;;;;;;6240782;28;20037;-57
2023/06/03 07:11:01;;;;;;;12.57;6.43;;;;;;;;;;6239382;28;20144;-60
2023/06/03 07:14:02;;;;;;;13.55;5.55;;;;;;;;;;6240323;28;20081;-59
2023/06/03 07:17:02;;;;;;;12.50;5.97;;;;;;;;;;6240853;28;20053;-59
2023/06/03 07:20:05;;;;;;;10.38;5.60;;;;;;;;;;6239224;28;20335;-61
2023/06/03 07:23:10;;;;;;;13.55;5.85;;;;;;;;;;6240049;28;20049;-59
2023/06/03 07:26:10;;;;;;;10.52;6.10;;;;;;;;;;6240713;28;20424;-60
2023/06/03 07:29:11;;;;;;;10.18;5.35;;;;;;;;;;6237749;28;20062;-57
2023/06/03 07:32:14;;;;;;;17.90;6.70;;;;;;;;;;6238464;28;20140;-62
2023/06/03 07:35:19;;;;;;;10.68;6.03;;;;;;;;;;6239877;28;20053;-60
2023/06/03 07:38:39;;;;;;;15.57;6.80;;;;;;;;;;6240113;28;20049;-57
2023/06/03 07:41:50;;;;;;;11.55;5.72;;;;;;;;;;6238814;28;20429;-53
2023/06/03 07:44:51;;;;;;;11.43;5.70;;;;;;;;;;6239544;28;20044;-58
2023/06/03 07:47:51;;;;;;;9.48;4.13;;;;;;;;;;6239930;28;20504;-53
2023/06/03 07:50:52;;;;;;;8.23;4.75;;;;;;;;;;6239688;28;20030;-60
2023/06/03 07:53:55;;;;;;;5.85;3.35;;;;;;;;;;6238254;28;21511;-58
2023/06/03 07:56:57;;;;;;;9.13;3.75;;;;;;;;;;6239987;28;20053;-59
2023/06/03 07:59:57;;;;;;;5.90;2.60;;;;;;;;;;6239959;28;20136;-59
2023/06/03 08:02:59;;;;;;;10.02;3.40;;;;;;;;;;6238223;28;20564;-60
2023/06/03 08:06:00;;;;;;;8.23;3.60;;;;;;;;;;6239748;28;20052;-59
2023/06/03 08:09:01;;;;;;;6.13;2.80;;;;;;;;;;6240013;28;20056;-60
2023/06/03 08:12:05;;;;;;;5.30;3.17;;;;;;;;;;6238922;28;20132;-60
2023/06/03 08:15:06;;;;;;;7.70;3.03;;;;;;;;;;6231450;28;20064;-52
2023/06/03 08:18:08;;;;;;;7.00;3.20;;;;;;;;;;6231212;28;20072;-59
2023/06/03 08:21:10;;;;;;;7.18;3.13;;;;;;;;;;6237683;28;20039;-62
2023/06/03 08:24:12;;;;;;;6.18;2.83;;;;;;;;;;6236890;28;20081;-59
2023/06/03 08:27:13;;;;;;;7.60;3.45;;;;;;;;;;6239577;28;20045;-57
2023/06/03 08:30:15;;;;;;;9.38;2.92;;;;;;;;;;6239383;28;20562;-52
2023/06/03 08:33:15;;;;;;;5.93;2.65;;;;;;;;;;6238201;28;20048;-60
2023/06/03 08:36:18;;;;;;;6.60;2.63;;;;;;;;;;6232298;28;20041;-60
2023/06/03 08:39:19;;;;;;;6.07;2.45;;;;;;;;;;6232417;28;20056;-58
2023/06/03 08:42:26;;;;;;;6.45;2.30;;;;;;;;;;6223850;28;20389;-61
2023/06/03 08:45:35;;;;;;;6.93;2.53;;;;;;;;;;6231780;28;20041;-55
2023/06/03 08:49:00;;;;;;;6.03;2.50;;;;;;;;;;6243807;28;20408;-57
2023/06/03 08:52:03;;;;;;;7.00;2.53;;;;;;;;;;6243592;28;20081;-59
2023/06/03 08:55:06;;;;;;;9.38;2.55;;;;;;;;;;6238636;28;20042;-58
2023/06/03 08:58:15;;;;;;;6.38;2.72;;;;;;;;;;6241888;28;20067;-58
2023/06/03 09:01:17;;;;;;;7.65;2.55;;;;;;;;;;6243775;28;20318;-56
2023/06/03 09:04:19;;;;;;;9.65;2.80;;;;;;;;;;6243559;28;20623;-57
2023/06/03 09:07:20;;;;;;;11.20;3.20;;;;;;;;;;6242011;28;20045;-56
2023/06/03 09:10:22;;;;;;;7.35;2.58;;;;;;;;;;6243548;28;20042;-59
2023/06/03 09:13:23;;;;;;;9.57;3.17;;;;;;;;;;6242902;28;20148;-61
2023/06/03 09:16:24;;;;;;;13.27;3.17;;;;;;;;;;6242270;28;20084;-62
2023/06/03 09:19:26;;;;;;;9.25;2.72;;;;;;;;;;6242924;28;20046;-59
2023/06/03 09:22:28;;;;;;;6.18;2.63;;;;;;;;;;6243077;28;20614;-70
2023/06/03 09:25:28;;;;;;;6.63;2.77;;;;;;;;;;6242461;28;20048;-65
2023/06/03 09:28:29;;;;;;;5.22;2.40;;;;;;;;;;6241979;28;20041;-59
2023/06/03 09:31:30;;;;;;;8.63;2.50;;;;;;;;;;6243424;28;20038;-63
2023/06/03 09:34:31;;;;;;;8.45;2.40;;;;;;;;;;6242667;28;20042;-69
2023/06/03 09:37:33;;;;;;;7.47;3.17;;;;;;;;;;6240897;28;20045;-60
2023/06/03 09:40:34;;;;;;;9.50;3.00;;;;;;;;;;6240966;28;20102;-56
2023/06/03 09:43:35;;;;;;;8.38;3.13;;;;;;;;;;6242500;28;20037;-61
2023/06/03 09:46:36;;;;;;;8.02;2.80;;;;;;;;;;6239874;28;20535;-59
2023/06/03 09:49:37;;;;;;;7.60;2.70;;;;;;;;;;6242140;28;20033;-56
2023/06/03 09:52:38;;;;;;;7.45;2.85;;;;;;;;;;6233540;28;20136;-61
2023/06/03 09:55:38;;;;;;;6.55;2.90;;;;;;;;;;6225614;28;20045;-60
2023/06/03 09:58:39;;;;;;;6.93;2.70;;;;;;;;;;6233113;28;20066;-69
2023/06/03 10:01:41;;;;;;;6.25;2.80;;;;;;;;;;6228359;28;20037;-59
2023/06/03 10:04:44;;;;;;;7.25;2.58;;;;;;;;;;6241779;28;20045;-60
2023/06/03 10:07:48;;;;;;;6.65;2.85;;;;;;;;;;6230214;28;20400;-54
2023/06/03 10:10:57;;;;;;;15.45;3.45;;;;;;;;;;6227273;28;20678;-57
2023/06/03 10:14:04;;;;;;;9.02;2.95;;;;;;;;;;6238634;28;20172;-56
2023/06/03 10:17:09;;;;;;;9.85;2.83;;;;;;;;;;6239813;28;20048;-56
2023/06/03 10:20:10;;;;;;;8.55;2.65;;;;;;;;;;6239637;28;20144;-55
2023/06/03 10:23:11;;;;;;;6.88;2.97;;;;;;;;;;6226931;28;20057;-47
2023/06/03 10:26:12;;;;;;;6.95;2.30;;;;;;;;;;6227813;28;20069;-63
2023/06/03 10:29:15;;;;;;;7.65;2.70;;;;;;;;;;6231402;28;20095;-57
2023/06/03 10:32:16;;;;;;;5.72;2.10;;;;;;;;;;6241013;28;20053;-59
2023/06/03 10:35:17;;;;;;;7.77;2.70;;;;;;;;;;6233614;28;20111;-47
2023/06/03 10:38:18;;;;;;;8.03;3.00;;;;;;;;;;6234551;28;20041;-55
2023/06/03 10:41:21;;;;;;;4.85;2.30;;;;;;;;;;6237188;28;20191;-63
2023/06/03 10:44:22;;;;;;;8.48;2.70;;;;;;;;;;6239580;28;20053;-62
2023/06/03 10:47:30;;;;;;;5.95;2.47;;;;;;;;;;6240217;28;20160;-52
2023/06/03 10:51:12;;;;;;;4.95;2.13;;;;;;;;;;6239572;28;20558;-58
2023/06/03 10:54:48;;;;;;;9.48;2.33;;;;;;;;;;6227935;28;20076;-59
2023/06/03 10:57:57;;;;;;;5.95;2.42;;;;;;;;;;6209594;28;20060;-59
2023/06/03 11:01:00;;;;;;;6.93;2.20;;;;;;;;;;6241117;28;20049;-48
2023/06/03 11:04:02;;;;;;;8.25;2.70;;;;;;;;;;6237156;28;20500;-49
2023/06/03 11:07:05;;;;;;;5.43;2.30;;;;;;;;;;6240172;28;20083;-58
2023/06/03 11:10:51;;;;;;;6.68;2.70;;;;;;;;;;6240471;28;20500;-56
2023/06/03 11:13:52;;;;;;;5.97;2.72;;;;;;;;;;6237200;28;20381;-58
2023/06/03 11:16:58;;;;;;;6.32;2.70;;;;;;;;;;6235392;28;20038;-61
2023/06/03 11:19:59;;;;;;;5.35;2.20;;;;;;;;;;6232610;28;20056;-53
2023/06/03 11:23:00;;;;;;;7.37;2.60;;;;;;;;;;6240402;28;20448;-61
2023/06/03 11:26:33;;;;;;;6.57;2.63;;;;;;;;;;6239261;28;20491;-61
2023/06/03 11:29:46;;;;;;;9.35;2.47;;;;;;;;;;6238480;28;20050;-59
2023/06/03 11:33:09;;;;;;;6.00;2.50;;;;;;;;;;6240302;28;20547;-60
2023/06/03 11:36:46;;;;;;;7.32;2.35;;;;;;;;;;6239959;28;20486;-61
2023/06/03 11:40:06;;;;;;;5.70;2.15;;;;;;;;;;6240056;28;20039;-56
2023/06/03 11:43:06;;;;;;;5.63;2.00;;;;;;;;;;6220474;28;20103;-47
2023/06/03 11:46:07;;;;;;;8.53;3.20;;;;;;;;;;6229655;28;20056;-52
2023/06/03 11:49:09;;;;;;;5.77;2.43;;;;;;;;;;6239833;28;20500;-56
2023/06/03 11:52:11;;;;;;;3.55;1.85;;;;;;;;;;6232236;28;20137;-55
2023/06/03 11:55:22;;;;;;;5.88;1.98;;;;;;;;;;6229205;28;20038;-56
2023/06/03 11:58:22;;;;;;;5.82;2.22;;;;;;;;;;6225286;28;20042;-58
2023/06/03 12:01:23;;;;;;;8.43;3.10;;;;;;;;;;6231105;28;20052;-61
2023/06/03 12:04:24;;;;;;;5.93;2.63;;;;;;;;;;6226750;28;20147;-59
2023/06/03 12:07:25;;;;;;;9.07;2.83;;;;;;;;;;6228063;28;20050;-57
2023/06/03 12:10:39;;;;;;;7.25;3.20;;;;;;;;;;6236795;28;20497;-55
2023/06/03 12:13:42;;;;;;;5.93;2.28;;;;;;;;;;6229847;28;20073;-54
2023/06/03 12:16:45;;;;;;;5.65;2.13;;;;;;;;;;6220599;28;20097;-57
2023/06/03 12:19:49;;;;;;;8.60;2.35;;;;;;;;;;6221312;28;20425;-53
2023/06/03 12:23:01;;;;;;;4.88;2.10;;;;;;;;;;6221924;28;20052;-58
2023/06/03 12:26:02;;;;;;;6.85;2.50;;;;;;;;;;6222238;28;20054;-60
2023/06/03 12:29:08;;;;;;;8.40;2.30;;;;;;;;;;6227111;28;20514;-60
2023/06/03 12:32:09;;;;;;;6.55;2.05;;;;;;;;;;6225846;28;20083;-57
2023/06/03 12:35:11;;;;;;;5.25;2.08;;;;;;;;;;6224517;28;20136;-61
2023/06/03 12:38:11;;;;;;;;;;;;;;;;;;6222838;28;20270;-59
2023/06/03 12:41:12;;;;;;;8.30;2.60;;;;;;;;;;6222707;28;19928;-61
2023/06/03 12:44:13;;;;;;;5.03;2.27;;;;;;;;;;6221828;28;20064;-60
2023/06/03 12:47:15;;;;;;;5.00;2.20;;;;;;;;;;6222180;28;20042;-55
2023/06/03 12:50:18;;;;;;;4.50;1.98;;;;;;;;;;6230724;28;20539;-55
2023/06/03 12:53:21;;;;;;;5.40;3.00;;;;;;;;;;6222657;28;20141;-60
2023/06/03 12:56:31;;;;;;;6.88;2.00;;;;;;;;;;6218351;28;20147;-57
2023/06/03 12:59:32;;;;;;;3.78;1.77;;;;;;;;;;6231805;28;20747;-59
2023/06/03 13:02:34;;;;;;;4.53;1.80;;;;;;;;;;6223747;28;20125;-57
2023/06/03 13:05:35;;;;;;;11.93;2.60;;;;;;;;;;6225223;28;20527;-58
2023/06/03 13:08:35;;;;;;;6.47;2.40;;;;;;;;;;6222759;28;20042;-61
2023/06/03 13:11:36;;;;;;;6.17;2.00;;;;;;;;;;6224739;28;20049;-60
2023/06/03 13:14:38;;;;;;;9.43;2.30;;;;;;;;;;6221870;28;20595;-58
2023/06/03 13:17:38;;;;;;;;;;;;;;;;;;6221271;28;20420;-57
2023/06/03 13:20:39;;;;;;;5.80;2.22;;;;;;;;;;6219773;28;19925;-58
2023/06/03 13:23:40;;;;;;;6.57;2.10;;;;;;;;;;6221822;28;20045;-57
2023/06/03 13:26:40;;;;;;;11.03;5.37;;;;;;;;;;6222827;28;20523;-62
2023/06/03 13:29:41;;;;;;;6.80;2.13;;;;;;;;;;6239938;28;20093;-56
2023/06/03 13:32:42;;;;;;;6.60;2.83;;;;;;;;;;6238201;28;20068;-49
2023/06/03 13:35:44;;;;;;;8.07;2.30;;;;;;;;;;6214835;28;20080;-55
2023/06/03 13:38:44;;;;;;;6.53;2.08;;;;;;;;;;6215379;28;20073;-56
2023/06/03 13:41:45;;;;;;;7.17;2.10;;;;;;;;;;6221007;28;20547;-61
2023/06/03 13:44:46;;;;;;;6.77;2.23;;;;;;;;;;6223419;28;20049;-57
2023/06/03 13:47:47;;;;;;;11.40;3.85;;;;;;;;;;6217080;28;20058;-60
2023/06/03 13:50:49;;;;;;;5.23;2.13;;;;;;;;;;6222418;28;20049;-55
2023/06/03 13:53:49;;;;;;;5.10;2.08;;;;;;;;;;6223919;28;20066;-56
2023/06/03 13:56:53;;;;;;;4.70;2.10;;;;;;;;;;6218919;28;20049;-60
2023/06/03 13:59:54;;;;;;;8.82;2.10;;;;;;;;;;6219596;28;20048;-58
2023/06/03 14:02:54;;;;;;;5.17;2.47;;;;;;;;;;6224495;28;20050;-56
2023/06/03 14:05:55;;;;;;;8.50;2.50;;;;;;;;;;6215034;28;20073;-58
2023/06/03 14:08:56;;;;;;;6.33;2.30;;;;;;;;;;6221760;28;20133;-60
2023/06/03 14:11:58;;;;;;;7.77;2.20;;;;;;;;;;6220697;28;20137;-55
2023/06/03 14:14:59;;;;;;;6.22;2.40;;;;;;;;;;6214730;28;20050;-54
2023/06/03 14:18:00;;;;;;;7.27;2.23;;;;;;;;;;6220214;28;20416;-60
2023/06/03 14:21:01;;;;;;;6.83;2.53;;;;;;;;;;6222854;28;20088;-55
2023/06/03 14:24:01;;;;;;;4.43;2.03;;;;;;;;;;6215422;28;20045;-60
2023/06/03 14:27:02;;;;;;;8.13;2.37;;;;;;;;;;6218080;28;20396;-53
2023/06/03 14:30:04;;;;;;;4.60;2.30;;;;;;;;;;6225318;28;20052;-59
2023/06/03 14:33:04;;;;;;;9.03;2.40;;;;;;;;;;6230573;28;20049;-56
2023/06/03 14:36:05;;;;;;;6.60;2.10;;;;;;;;;;6222230;28;20065;-61
2023/06/03 14:39:05;;;;;;;5.20;2.10;;;;;;;;;;6219475;28;20730;-59
2023/06/03 14:42:06;;;;;;;6.53;2.23;;;;;;;;;;6218497;28;20148;-60
2023/06/03 14:45:07;;;;;;;6.97;2.30;;;;;;;;;;6219971;28;20041;-62
2023/06/03 14:48:08;;;;;;;7.28;2.50;;;;;;;;;;6215344;28;20038;-59
2023/06/03 14:51:09;;;;;;;7.00;2.50;;;;;;;;;;6218041;28;20069;-62
2023/06/03 14:54:10;;;;;;;6.43;2.00;;;;;;;;;;6218610;28;20546;-60
2023/06/03 14:57:10;;;;;;;5.27;2.20;;;;;;;;;;6228969;28;20047;-60
2023/06/03 15:00:12;;;;;;;5.87;2.30;;;;;;;;;;6218205;28;20050;-60
2023/06/03 15:03:12;;;;;;;7.15;3.13;;;;;;;;;;6218437;28;20038;-61
2023/06/03 15:06:13;;;;;;;8.00;1.80;;;;;;;;;;6217917;28;20108;-62
2023/06/03 15:09:13;;;;;;;7.57;2.17;;;;;;;;;;6215808;28;20600;-55
2023/06/03 15:12:14;;;;;;;10.37;3.37;;;;;;;;;;6216873;28;20065;-60
2023/06/03 15:15:15;;;;;;;6.47;2.33;;;;;;;;;;6217520;28;20061;-62
2023/06/03 15:18:15;;;;;;;7.63;2.60;;;;;;;;;;6215804;28;20049;-58
2023/06/03 15:21:17;;;;;;;10.13;2.37;;;;;;;;;;6219011;28;20045;-60
2023/06/03 15:24:17;;;;;;;8.85;1.88;;;;;;;;;;6218036;28;20043;-61
2023/06/03 15:27:19;;;;;;;7.73;2.37;;;;;;;;;;6216617;28;20041;-58
2023/06/03 15:30:20;;;;;;;8.05;2.08;;;;;;;;;;6218929;28;20042;-58
2023/06/03 15:33:20;;;;;;;6.43;2.10;;;;;;;;;;6218268;28;20041;-61
2023/06/03 15:36:21;;;;;;;5.00;1.83;;;;;;;;;;6217367;28;20034;-61
2023/06/03 15:39:22;;;;;;;5.60;2.40;;;;;;;;;;6217788;28;20120;-54
2023/06/03 15:42:22;;;;;;;7.90;2.40;;;;;;;;;;6218345;28;20417;-57
2023/06/03 15:45:23;;;;;;;12.80;2.77;;;;;;;;;;6219437;28;20420;-54
2023/06/03 15:48:23;;;;;;;16.80;2.50;;;;;;;;;;6217112;28;20149;-59
2023/06/03 15:51:25;;;;;;;5.03;2.50;;;;;;;;;;6218802;28;20488;-60
2023/06/03 15:54:26;;;;;;;8.60;2.25;;;;;;;;;;6222211;28;20485;-60
2023/06/03 15:57:26;;;;;;;4.67;2.00;;;;;;;;;;6221581;28;20049;-61
2023/06/03 16:00:27;;;;;;;29.77;18.40;;;;;;;;;;6225296;28;20481;-60
2023/06/03 16:03:27;;;;;;;17.57;8.37;;;;;;;;;;6225972;28;20041;-59
2023/06/03 16:06:28;;;;;;;10.80;5.60;;;;;;;;;;6220860;28;20124;-58
2023/06/03 16:09:29;;;;;;;76.93;44.83;;;;;;;;;;6224989;28;20104;-62
2023/06/03 16:12:30;;;;;;;41.97;22.58;;;;;;;;;;6224058;28;20044;-57
2023/06/03 16:15:30;;;;;;;89.37;44.13;;;;;;;;;;6223499;28;20038;-58
2023/06/03 16:18:31;;;;;;;40.27;26.27;;;;;;;;;;6220611;28;20547;-58
2023/06/03 16:21:32;;;;;;;146.07;79.87;;;;;;;;;;6222410;28;20033;-58
2023/06/03 16:24:32;;;;;;;15.67;8.27;;;;;;;;;;6223066;28;20038;-62
2023/06/03 16:27:33;;;;;;;9.70;3.47;;;;;;;;;;6221425;28;20091;-61
2023/06/03 16:30:34;;;;;;;7.00;3.25;;;;;;;;;;6223325;28;20492;-61
2023/06/03 16:33:35;;;;;;;11.30;3.43;;;;;;;;;;6221907;28;20098;-61
2023/06/03 16:36:36;;;;;;;10.13;5.03;;;;;;;;;;6236252;28;20052;-59
2023/06/03 16:39:37;;;;;;;23.63;10.75;;;;;;;;;;6233915;28;20057;-60
2023/06/03 16:42:38;;;;;;;12.70;4.63;;;;;;;;;;6220904;28;20060;-60
2023/06/03 16:45:38;;;;;;;16.47;7.20;;;;;;;;;;6223461;28;20046;-61
2023/06/03 16:48:39;;;;;;;6.03;2.50;;;;;;;;;;6223489;28;20065;-53
2023/06/03 16:51:39;;;;;;;5.77;2.60;;;;;;;;;;6223810;28;20444;-57
2023/06/03 16:54:41;;;;;;;7.97;3.07;;;;;;;;;;6221845;28;20046;-61
2023/06/03 16:57:42;;;;;;;;;;;;;;;;;;6220381;28;20067;-61
2023/06/03 17:00:43;;;;;;;7.13;3.00;;;;;;;;;;6222210;28;19925;-59
2023/06/03 17:03:43;;;;;;;5.67;2.53;;;;;;;;;;6217907;28;20048;-53
2023/06/03 17:06:44;;;;;;;7.67;2.80;;;;;;;;;;6220178;28;20390;-62
2023/06/03 17:09:45;;;;;;;6.87;3.13;;;;;;;;;;6223425;28;20045;-55
2023/06/03 17:12:45;;;;;;;8.37;2.90;;;;;;;;;;6220837;28;20184;-60
2023/06/03 17:15:46;;;;;;;10.53;2.60;;;;;;;;;;6221682;28;20484;-62
2023/06/03 17:18:47;;;;;;;5.90;2.80;;;;;;;;;;6222667;28;20054;-60
2023/06/03 17:21:47;;;;;;;15.50;5.33;;;;;;;;;;6221633;28;20045;-60
2023/06/03 17:24:48;;;;;;;10.50;3.93;;;;;;;;;;6218688;28;20131;-56
2023/06/03 17:27:48;;;;;;;10.60;5.27;;;;;;;;;;6219256;28;20575;-55
2023/06/03 17:30:49;;;;;;;13.53;5.17;;;;;;;;;;6221570;28;20073;-61
2023/06/03 17:33:49;;;;;;;14.40;5.57;;;;;;;;;;6222570;28;20053;-60
2023/06/03 17:36:50;;;;;;;16.23;6.10;;;;;;;;;;6220857;28;20500;-57
2023/06/03 17:39:51;;;;;;;22.50;9.33;;;;;;;;;;6219634;28;20061;-57
2023/06/03 17:42:51;;;;;;;14.97;7.70;;;;;;;;;;6221496;28;20495;-60
2023/06/03 17:45:52;;;;;;;12.07;4.60;;;;;;;;;;6229971;28;20041;-56
2023/06/03 17:48:53;;;;;;;15.07;4.60;;;;;;;;;;6220193;28;20493;-58
2023/06/03 17:51:53;;;;;;;7.10;3.20;;;;;;;;;;6220195;28;20045;-58
2023/06/03 17:54:54;;;;;;;9.83;3.43;;;;;;;;;;6221106;28;20041;-61
2023/06/03 17:57:54;;;;;;;8.57;3.83;;;;;;;;;;6223832;28;20336;-60
2023/06/03 18:00:55;;;;;;;7.87;3.17;;;;;;;;;;6234712;28;20424;-61
2023/06/03 18:03:56;;;;;;;9.97;4.27;;;;;;;;;;6219449;28;20100;-59